sensor_id;sensor_type;location;lat;lon;timestamp;P1;durP1;ratioP1;P2;durP2;ratioP2
33094;SDS011;19459;53.044;8.910;2023-08-24T00:01:20;9.13;;;2.95;;
33094;SDS011;19459;53.044;8.910;2023-08-24T00:03:46;9.85;;;3.25;;
33094;SDS011;19459;53.044;8.910;2023-08-24T00:06:12;4.03;;;3.25;;
33094;SDS011;19459;53.044;8.910;2023-08-24T00:08:38;12.73;;;4.55;;
33094;SDS011;19459;53.044;8.910;2023-08-24T00:11:04;8.00;;;2.70;;
33094;SDS011;19459;53.044;8.910;2023-08-24T00:13:31;9.52;;;3.78;;
33094;SDS011;19459;53.044;8.910;2023-08-24T00:15:57;5.30;;;3.08;;
33094;SDS011;19459;53.044;8.910;2023-08-24T00:18:23;8.80;;;3.88;;
33094;SDS011;19459;53.044;8.910;2023-08-24T00:20:50;7.03;;;3.05;;
33094;SDS011;19459;53.044;8.910;2023-08-24T00:23:16;5.22;;;3.58;;
33094;SDS011;19459;53.044;8.910;2023-08-24T00:25:43;10.13;;;4.55;;
33094;SDS011;19459;53.044;8.910;2023-08-24T00:28:09;7.90;;;3.45;;
33094;SDS011;19459;53.044;8.910;2023-08-24T00:30:36;10.48;;;4.18;;
33094;SDS011;19459;53.044;8.910;2023-08-24T00:33:02;7.97;;;4.07;;
33094;SDS011;19459;53.044;8.910;2023-08-24T00:35:29;7.97;;;4.03;;
33094;SDS011;19459;53.044;8.910;2023-08-24T00:37:55;8.27;;;3.85;;
33094;SDS011;19459;53.044;8.910;2023-08-24T00:40:21;8.48;;;3.75;;
33094;SDS011;19459;53.044;8.910;2023-08-24T00:42:47;6.63;;;4.05;;
33094;SDS011;19459;53.044;8.910;2023-08-24T00:45:13;6.40;;;3.03;;
33094;SDS011;19459;53.044;8.910;2023-08-24T00:47:45;7.85;;;4.20;;
33094;SDS011;19459;53.044;8.910;2023-08-24T00:50:12;8.75;;;3.67;;
33094;SDS011;19459;53.044;8.910;2023-08-24T00:52:40;5.85;;;3.65;;
33094;SDS011;19459;53.044;8.910;2023-08-24T00:55:07;5.70;;;3.40;;
33094;SDS011;19459;53.044;8.910;2023-08-24T00:57:35;8.10;;;3.47;;
33094;SDS011;19459;53.044;8.910;2023-08-24T01:00:03;6.40;;;3.40;;
33094;SDS011;19459;53.044;8.910;2023-08-24T01:02:31;7.47;;;3.60;;
33094;SDS011;19459;53.044;8.910;2023-08-24T01:04:58;8.77;;;3.78;;
33094;SDS011;19459;53.044;8.910;2023-08-24T01:07:24;8.98;;;3.53;;
33094;SDS011;19459;53.044;8.910;2023-08-24T01:09:50;6.57;;;3.65;;
33094;SDS011;19459;53.044;8.910;2023-08-24T01:18:11;8.35;;;3.95;;
33094;SDS011;19459;53.044;8.910;2023-08-24T01:20:40;8.80;;;4.70;;
33094;SDS011;19459;53.044;8.910;2023-08-24T01:23:14;11.30;;;4.55;;
33094;SDS011;19459;53.044;8.910;2023-08-24T01:26:20;8.57;;;3.75;;
33094;SDS011;19459;53.044;8.910;2023-08-24T01:28:47;8.68;;;3.60;;
33094;SDS011;19459;53.044;8.910;2023-08-24T01:31:13;10.43;;;4.00;;
33094;SDS011;19459;53.044;8.910;2023-08-24T01:33:44;8.18;;;3.90;;
33094;SDS011;19459;53.044;8.910;2023-08-24T01:36:11;5.88;;;3.35;;
33094;SDS011;19459;53.044;8.910;2023-08-24T01:38:39;12.98;;;5.35;;
33094;SDS011;19459;53.044;8.910;2023-08-24T01:43:45;6.70;;;3.95;;
33094;SDS011;19459;53.044;8.910;2023-08-24T01:46:15;8.88;;;3.47;;
33094;SDS011;19459;53.044;8.910;2023-08-24T01:48:43;11.07;;;3.70;;
33094;SDS011;19459;53.044;8.910;2023-08-24T01:51:09;8.02;;;3.80;;
33094;SDS011;19459;53.044;8.910;2023-08-24T01:53:36;6.15;;;3.78;;
33094;SDS011;19459;53.044;8.910;2023-08-24T01:56:12;5.57;;;3.22;;
33094;SDS011;19459;53.044;8.910;2023-08-24T01:58:40;6.78;;;3.60;;
33094;SDS011;19459;53.044;8.910;2023-08-24T02:01:07;5.82;;;3.63;;
33094;SDS011;19459;53.044;8.910;2023-08-24T02:03:34;8.68;;;4.22;;
33094;SDS011;19459;53.044;8.910;2023-08-24T02:06:00;11.10;;;4.53;;
33094;SDS011;19459;53.044;8.910;2023-08-24T02:08:25;7.07;;;3.42;;
33094;SDS011;19459;53.044;8.910;2023-08-24T02:10:51;8.30;;;3.78;;
33094;SDS011;19459;53.044;8.910;2023-08-24T02:13:17;8.48;;;3.67;;
33094;SDS011;19459;53.044;8.910;2023-08-24T02:15:43;6.88;;;3.28;;
33094;SDS011;19459;53.044;8.910;2023-08-24T02:18:08;8.15;;;3.40;;
33094;SDS011;19459;53.044;8.910;2023-08-24T02:20:35;6.20;;;3.20;;
33094;SDS011;19459;53.044;8.910;2023-08-24T02:23:02;8.40;;;4.30;;
33094;SDS011;19459;53.044;8.910;2023-08-24T02:25:28;7.03;;;3.78;;
33094;SDS011;19459;53.044;8.910;2023-08-24T02:27:54;5.82;;;3.78;;
33094;SDS011;19459;53.044;8.910;2023-08-24T02:30:20;7.40;;;4.22;;
33094;SDS011;19459;53.044;8.910;2023-08-24T02:32:46;6.60;;;2.92;;
33094;SDS011;19459;53.044;8.910;2023-08-24T02:35:12;4.88;;;3.17;;
33094;SDS011;19459;53.044;8.910;2023-08-24T02:37:37;7.78;;;3.47;;
33094;SDS011;19459;53.044;8.910;2023-08-24T02:40:04;7.38;;;3.20;;
33094;SDS011;19459;53.044;8.910;2023-08-24T02:42:31;5.60;;;3.38;;
33094;SDS011;19459;53.044;8.910;2023-08-24T02:44:58;6.63;;;3.75;;
33094;SDS011;19459;53.044;8.910;2023-08-24T02:47:24;10.30;;;4.05;;
33094;SDS011;19459;53.044;8.910;2023-08-24T02:49:50;7.55;;;4.40;;
33094;SDS011;19459;53.044;8.910;2023-08-24T02:52:16;7.82;;;4.38;;
33094;SDS011;19459;53.044;8.910;2023-08-24T02:54:42;6.78;;;3.63;;
33094;SDS011;19459;53.044;8.910;2023-08-24T02:57:08;8.30;;;4.55;;
33094;SDS011;19459;53.044;8.910;2023-08-24T02:59:34;8.40;;;4.80;;
33094;SDS011;19459;53.044;8.910;2023-08-24T03:02:00;9.82;;;4.38;;
33094;SDS011;19459;53.044;8.910;2023-08-24T03:04:25;6.68;;;4.97;;
33094;SDS011;19459;53.044;8.910;2023-08-24T03:06:52;9.15;;;4.47;;
33094;SDS011;19459;53.044;8.910;2023-08-24T03:09:17;13.95;;;5.40;;
33094;SDS011;19459;53.044;8.910;2023-08-24T03:11:43;11.90;;;5.75;;
33094;SDS011;19459;53.044;8.910;2023-08-24T03:14:09;10.85;;;6.00;;
33094;SDS011;19459;53.044;8.910;2023-08-24T03:16:36;9.23;;;5.85;;
33094;SDS011;19459;53.044;8.910;2023-08-24T03:19:04;11.88;;;6.57;;
33094;SDS011;19459;53.044;8.910;2023-08-24T03:21:30;9.02;;;6.75;;
33094;SDS011;19459;53.044;8.910;2023-08-24T03:23:56;7.90;;;6.05;;
33094;SDS011;19459;53.044;8.910;2023-08-24T03:26:22;8.32;;;5.90;;
33094;SDS011;19459;53.044;8.910;2023-08-24T03:28:48;10.35;;;7.15;;
33094;SDS011;19459;53.044;8.910;2023-08-24T03:31:15;17.27;;;6.50;;
33094;SDS011;19459;53.044;8.910;2023-08-24T03:33:41;10.15;;;5.78;;
33094;SDS011;19459;53.044;8.910;2023-08-24T03:36:07;10.75;;;6.78;;
33094;SDS011;19459;53.044;8.910;2023-08-24T03:38:33;10.05;;;6.70;;
33094;SDS011;19459;53.044;8.910;2023-08-24T03:41:02;10.05;;;7.30;;
33094;SDS011;19459;53.044;8.910;2023-08-24T03:43:31;12.98;;;7.18;;
33094;SDS011;19459;53.044;8.910;2023-08-24T03:45:59;9.80;;;6.68;;
33094;SDS011;19459;53.044;8.910;2023-08-24T03:48:26;17.55;;;7.93;;
33094;SDS011;19459;53.044;8.910;2023-08-24T03:50:55;10.98;;;7.15;;
33094;SDS011;19459;53.044;8.910;2023-08-24T03:53:22;11.52;;;7.65;;
33094;SDS011;19459;53.044;8.910;2023-08-24T03:55:49;8.65;;;6.93;;
33094;SDS011;19459;53.044;8.910;2023-08-24T03:58:19;14.90;;;7.03;;
33094;SDS011;19459;53.044;8.910;2023-08-24T04:00:45;8.45;;;5.88;;
33094;SDS011;19459;53.044;8.910;2023-08-24T04:03:11;12.63;;;6.85;;
33094;SDS011;19459;53.044;8.910;2023-08-24T04:05:38;10.65;;;6.95;;
33094;SDS011;19459;53.044;8.910;2023-08-24T04:08:04;11.27;;;7.72;;
33094;SDS011;19459;53.044;8.910;2023-08-24T04:10:30;17.80;;;7.95;;
33094;SDS011;19459;53.044;8.910;2023-08-24T04:12:56;12.05;;;7.38;;
33094;SDS011;19459;53.044;8.910;2023-08-24T04:15:22;9.48;;;7.35;;
33094;SDS011;19459;53.044;8.910;2023-08-24T04:17:48;14.90;;;8.57;;
33094;SDS011;19459;53.044;8.910;2023-08-24T04:20:14;15.45;;;7.85;;
33094;SDS011;19459;53.044;8.910;2023-08-24T04:22:41;12.75;;;6.68;;
33094;SDS011;19459;53.044;8.910;2023-08-24T04:25:07;8.88;;;6.57;;
33094;SDS011;19459;53.044;8.910;2023-08-24T04:27:33;15.00;;;7.68;;
33094;SDS011;19459;53.044;8.910;2023-08-24T04:30:00;9.13;;;7.43;;
33094;SDS011;19459;53.044;8.910;2023-08-24T04:32:26;14.25;;;6.97;;
33094;SDS011;19459;53.044;8.910;2023-08-24T04:34:53;14.63;;;8.80;;
33094;SDS011;19459;53.044;8.910;2023-08-24T04:37:18;10.23;;;7.57;;
33094;SDS011;19459;53.044;8.910;2023-08-24T04:39:44;12.65;;;7.82;;
33094;SDS011;19459;53.044;8.910;2023-08-24T04:42:11;18.08;;;8.35;;
33094;SDS011;19459;53.044;8.910;2023-08-24T04:44:36;10.98;;;8.32;;
33094;SDS011;19459;53.044;8.910;2023-08-24T04:47:02;13.60;;;8.77;;
33094;SDS011;19459;53.044;8.910;2023-08-24T04:49:29;12.15;;;8.50;;
33094;SDS011;19459;53.044;8.910;2023-08-24T04:51:55;13.02;;;8.23;;
33094;SDS011;19459;53.044;8.910;2023-08-24T04:54:21;20.90;;;8.88;;
33094;SDS011;19459;53.044;8.910;2023-08-24T04:56:47;16.75;;;8.98;;
33094;SDS011;19459;53.044;8.910;2023-08-24T04:59:13;13.07;;;7.60;;
33094;SDS011;19459;53.044;8.910;2023-08-24T05:01:39;12.82;;;8.75;;
33094;SDS011;19459;53.044;8.910;2023-08-24T05:04:05;13.90;;;8.63;;
33094;SDS011;19459;53.044;8.910;2023-08-24T05:06:30;8.75;;;7.35;;
33094;SDS011;19459;53.044;8.910;2023-08-24T05:08:56;13.10;;;8.15;;
33094;SDS011;19459;53.044;8.910;2023-08-24T05:11:23;14.80;;;8.93;;
33094;SDS011;19459;53.044;8.910;2023-08-24T05:13:51;12.00;;;7.97;;
33094;SDS011;19459;53.044;8.910;2023-08-24T05:16:17;11.68;;;9.07;;
33094;SDS011;19459;53.044;8.910;2023-08-24T05:18:43;15.15;;;8.85;;
33094;SDS011;19459;53.044;8.910;2023-08-24T05:21:08;13.85;;;9.70;;
33094;SDS011;19459;53.044;8.910;2023-08-24T05:23:34;13.50;;;7.85;;
33094;SDS011;19459;53.044;8.910;2023-08-24T05:26:01;13.82;;;9.40;;
33094;SDS011;19459;53.044;8.910;2023-08-24T05:28:28;16.92;;;9.27;;
33094;SDS011;19459;53.044;8.910;2023-08-24T05:30:56;14.73;;;8.30;;
33094;SDS011;19459;53.044;8.910;2023-08-24T05:33:22;11.93;;;7.78;;
33094;SDS011;19459;53.044;8.910;2023-08-24T05:35:49;13.48;;;8.88;;
33094;SDS011;19459;53.044;8.910;2023-08-24T05:38:16;13.73;;;7.75;;
33094;SDS011;19459;53.044;8.910;2023-08-24T05:40:42;13.60;;;8.88;;
33094;SDS011;19459;53.044;8.910;2023-08-24T05:43:11;17.73;;;9.57;;
33094;SDS011;19459;53.044;8.910;2023-08-24T05:45:36;15.73;;;10.18;;
33094;SDS011;19459;53.044;8.910;2023-08-24T05:48:04;19.15;;;12.13;;
33094;SDS011;19459;53.044;8.910;2023-08-24T05:50:31;17.63;;;10.82;;
33094;SDS011;19459;53.044;8.910;2023-08-24T05:52:56;12.88;;;9.48;;
33094;SDS011;19459;53.044;8.910;2023-08-24T05:55:22;15.35;;;9.63;;
33094;SDS011;19459;53.044;8.910;2023-08-24T05:57:48;16.50;;;10.00;;
33094;SDS011;19459;53.044;8.910;2023-08-24T06:00:16;19.55;;;12.20;;
33094;SDS011;19459;53.044;8.910;2023-08-24T06:02:43;15.27;;;9.25;;
33094;SDS011;19459;53.044;8.910;2023-08-24T06:05:08;14.30;;;8.45;;
33094;SDS011;19459;53.044;8.910;2023-08-24T06:07:36;16.15;;;9.38;;
33094;SDS011;19459;53.044;8.910;2023-08-24T06:10:02;13.52;;;10.50;;
33094;SDS011;19459;53.044;8.910;2023-08-24T06:12:28;10.73;;;8.52;;
33094;SDS011;19459;53.044;8.910;2023-08-24T06:14:53;16.02;;;10.02;;
33094;SDS011;19459;53.044;8.910;2023-08-24T06:17:19;18.17;;;10.77;;
33094;SDS011;19459;53.044;8.910;2023-08-24T06:19:45;13.10;;;9.55;;
33094;SDS011;19459;53.044;8.910;2023-08-24T06:22:11;15.88;;;9.75;;
33094;SDS011;19459;53.044;8.910;2023-08-24T06:24:37;18.98;;;11.20;;
33094;SDS011;19459;53.044;8.910;2023-08-24T06:27:03;13.60;;;9.52;;
33094;SDS011;19459;53.044;8.910;2023-08-24T06:29:29;16.02;;;9.20;;
33094;SDS011;19459;53.044;8.910;2023-08-24T06:31:54;15.48;;;10.15;;
33094;SDS011;19459;53.044;8.910;2023-08-24T06:34:21;18.48;;;8.52;;
33094;SDS011;19459;53.044;8.910;2023-08-24T06:36:47;12.00;;;8.35;;
33094;SDS011;19459;53.044;8.910;2023-08-24T06:39:15;15.27;;;8.75;;
33094;SDS011;19459;53.044;8.910;2023-08-24T06:41:53;18.08;;;7.70;;
33094;SDS011;19459;53.044;8.910;2023-08-24T06:44:38;12.73;;;7.18;;
33094;SDS011;19459;53.044;8.910;2023-08-24T06:47:07;16.98;;;8.75;;
33094;SDS011;19459;53.044;8.910;2023-08-24T06:49:32;17.50;;;8.05;;
33094;SDS011;19459;53.044;8.910;2023-08-24T06:51:58;13.15;;;7.07;;
33094;SDS011;19459;53.044;8.910;2023-08-24T06:54:24;16.08;;;6.57;;
33094;SDS011;19459;53.044;8.910;2023-08-24T06:56:50;10.00;;;6.38;;
33094;SDS011;19459;53.044;8.910;2023-08-24T06:59:16;9.57;;;5.80;;
33094;SDS011;19459;53.044;8.910;2023-08-24T07:01:41;10.38;;;4.57;;
33094;SDS011;19459;53.044;8.910;2023-08-24T07:04:07;6.82;;;4.70;;
33094;SDS011;19459;53.044;8.910;2023-08-24T07:06:33;11.32;;;4.43;;
33094;SDS011;19459;53.044;8.910;2023-08-24T07:08:59;9.13;;;4.90;;
33094;SDS011;19459;53.044;8.910;2023-08-24T07:11:25;10.23;;;4.38;;
33094;SDS011;19459;53.044;8.910;2023-08-24T07:13:51;5.88;;;3.38;;
33094;SDS011;19459;53.044;8.910;2023-08-24T07:16:18;6.53;;;3.40;;
33094;SDS011;19459;53.044;8.910;2023-08-24T07:18:44;6.50;;;3.63;;
33094;SDS011;19459;53.044;8.910;2023-08-24T07:21:10;10.77;;;4.40;;
33094;SDS011;19459;53.044;8.910;2023-08-24T07:23:36;8.90;;;3.72;;
33094;SDS011;19459;53.044;8.910;2023-08-24T07:26:12;7.90;;;4.07;;
33094;SDS011;19459;53.044;8.910;2023-08-24T07:28:38;10.82;;;4.90;;
33094;SDS011;19459;53.044;8.910;2023-08-24T07:31:07;8.73;;;3.85;;
33094;SDS011;19459;53.044;8.910;2023-08-24T07:33:35;10.90;;;4.05;;
33094;SDS011;19459;53.044;8.910;2023-08-24T07:36:04;16.05;;;5.47;;
33094;SDS011;19459;53.044;8.910;2023-08-24T07:38:30;9.90;;;5.38;;
33094;SDS011;19459;53.044;8.910;2023-08-24T07:40:56;14.38;;;7.75;;
33094;SDS011;19459;53.044;8.910;2023-08-24T07:43:23;15.18;;;6.63;;
33094;SDS011;19459;53.044;8.910;2023-08-24T07:45:49;11.70;;;6.28;;
33094;SDS011;19459;53.044;8.910;2023-08-24T07:48:15;11.77;;;6.45;;
33094;SDS011;19459;53.044;8.910;2023-08-24T07:50:41;12.23;;;7.65;;
33094;SDS011;19459;53.044;8.910;2023-08-24T07:53:06;9.85;;;6.40;;
33094;SDS011;19459;53.044;8.910;2023-08-24T07:55:32;15.02;;;6.43;;
33094;SDS011;19459;53.044;8.910;2023-08-24T07:57:58;12.23;;;6.10;;
33094;SDS011;19459;53.044;8.910;2023-08-24T08:00:24;10.45;;;5.70;;
33094;SDS011;19459;53.044;8.910;2023-08-24T08:02:50;7.97;;;5.07;;
33094;SDS011;19459;53.044;8.910;2023-08-24T08:05:16;9.32;;;5.45;;
33094;SDS011;19459;53.044;8.910;2023-08-24T08:07:43;10.23;;;5.22;;
33094;SDS011;19459;53.044;8.910;2023-08-24T08:10:09;7.57;;;4.88;;
33094;SDS011;19459;53.044;8.910;2023-08-24T08:12:35;8.43;;;3.10;;
33094;SDS011;19459;53.044;8.910;2023-08-24T08:15:01;8.10;;;4.88;;
33094;SDS011;19459;53.044;8.910;2023-08-24T08:17:27;9.88;;;3.95;;
33094;SDS011;19459;53.044;8.910;2023-08-24T08:19:55;11.25;;;4.13;;
33094;SDS011;19459;53.044;8.910;2023-08-24T08:22:22;8.50;;;3.80;;
33094;SDS011;19459;53.044;8.910;2023-08-24T08:24:48;8.13;;;3.58;;
33094;SDS011;19459;53.044;8.910;2023-08-24T08:27:15;9.35;;;3.47;;
33094;SDS011;19459;53.044;8.910;2023-08-24T08:29:41;11.52;;;3.70;;
33094;SDS011;19459;53.044;8.910;2023-08-24T08:32:07;7.45;;;3.90;;
33094;SDS011;19459;53.044;8.910;2023-08-24T08:34:33;7.18;;;4.05;;
33094;SDS011;19459;53.044;8.910;2023-08-24T08:37:03;11.38;;;4.05;;
33094;SDS011;19459;53.044;8.910;2023-08-24T08:39:30;13.98;;;4.70;;
33094;SDS011;19459;53.044;8.910;2023-08-24T08:41:57;8.90;;;6.10;;
33094;SDS011;19459;53.044;8.910;2023-08-24T08:44:23;12.82;;;6.18;;
33094;SDS011;19459;53.044;8.910;2023-08-24T08:46:55;9.75;;;5.50;;
33094;SDS011;19459;53.044;8.910;2023-08-24T08:49:22;11.30;;;5.18;;
33094;SDS011;19459;53.044;8.910;2023-08-24T08:51:48;9.43;;;5.60;;
33094;SDS011;19459;53.044;8.910;2023-08-24T08:54:16;9.02;;;4.95;;
33094;SDS011;19459;53.044;8.910;2023-08-24T08:56:42;14.88;;;5.53;;
33094;SDS011;19459;53.044;8.910;2023-08-24T08:59:08;22.63;;;5.65;;
33094;SDS011;19459;53.044;8.910;2023-08-24T09:01:37;19.73;;;4.90;;
33094;SDS011;19459;53.044;8.910;2023-08-24T09:04:03;14.32;;;5.63;;
33094;SDS011;19459;53.044;8.910;2023-08-24T09:06:31;12.27;;;4.43;;
33094;SDS011;19459;53.044;8.910;2023-08-24T09:09:01;14.18;;;4.43;;
33094;SDS011;19459;53.044;8.910;2023-08-24T09:11:27;7.72;;;3.45;;
33094;SDS011;19459;53.044;8.910;2023-08-24T09:13:53;11.48;;;4.53;;
33094;SDS011;19459;53.044;8.910;2023-08-24T09:16:18;7.22;;;3.75;;
33094;SDS011;19459;53.044;8.910;2023-08-24T09:18:46;10.52;;;3.22;;
33094;SDS011;19459;53.044;8.910;2023-08-24T09:21:13;53.90;;;19.40;;
33094;SDS011;19459;53.044;8.910;2023-08-24T09:23:53;73.15;;;28.52;;
33094;SDS011;19459;53.044;8.910;2023-08-24T09:26:30;11.00;;;3.97;;
33094;SDS011;19459;53.044;8.910;2023-08-24T09:29:00;14.70;;;4.97;;
33094;SDS011;19459;53.044;8.910;2023-08-24T09:31:39;10.25;;;3.70;;
33094;SDS011;19459;53.044;8.910;2023-08-24T09:34:05;32.35;;;11.38;;
33094;SDS011;19459;53.044;8.910;2023-08-24T09:36:32;9.98;;;4.80;;
33094;SDS011;19459;53.044;8.910;2023-08-24T09:38:59;8.30;;;4.05;;
33094;SDS011;19459;53.044;8.910;2023-08-24T09:44:05;9.88;;;4.22;;
33094;SDS011;19459;53.044;8.910;2023-08-24T09:46:32;9.48;;;4.03;;
33094;SDS011;19459;53.044;8.910;2023-08-24T09:48:58;18.48;;;5.80;;
33094;SDS011;19459;53.044;8.910;2023-08-24T09:51:28;11.82;;;3.42;;
33094;SDS011;19459;53.044;8.910;2023-08-24T09:53:56;11.90;;;3.25;;
33094;SDS011;19459;53.044;8.910;2023-08-24T09:56:27;8.45;;;3.60;;
33094;SDS011;19459;53.044;8.910;2023-08-24T09:59:05;15.15;;;4.30;;
33094;SDS011;19459;53.044;8.910;2023-08-24T10:01:43;7.00;;;3.75;;
33094;SDS011;19459;53.044;8.910;2023-08-24T10:04:22;9.25;;;3.08;;
33094;SDS011;19459;53.044;8.910;2023-08-24T10:07:15;7.63;;;2.80;;
33094;SDS011;19459;53.044;8.910;2023-08-24T10:12:20;6.93;;;3.45;;
33094;SDS011;19459;53.044;8.910;2023-08-24T10:14:59;11.85;;;2.75;;
33094;SDS011;19459;53.044;8.910;2023-08-24T10:17:32;5.10;;;3.00;;
33094;SDS011;19459;53.044;8.910;2023-08-24T10:20:01;6.93;;;3.83;;
33094;SDS011;19459;53.044;8.910;2023-08-24T10:22:34;7.70;;;2.80;;
33094;SDS011;19459;53.044;8.910;2023-08-24T10:25:01;7.18;;;2.92;;
33094;SDS011;19459;53.044;8.910;2023-08-24T10:27:28;5.32;;;3.03;;
33094;SDS011;19459;53.044;8.910;2023-08-24T10:29:55;5.97;;;2.75;;
33094;SDS011;19459;53.044;8.910;2023-08-24T10:32:22;5.55;;;3.08;;
33094;SDS011;19459;53.044;8.910;2023-08-24T10:34:50;6.80;;;3.00;;
33094;SDS011;19459;53.044;8.910;2023-08-24T10:37:16;10.02;;;3.63;;
33094;SDS011;19459;53.044;8.910;2023-08-24T10:39:45;4.78;;;2.50;;
33094;SDS011;19459;53.044;8.910;2023-08-24T10:42:12;8.00;;;3.38;;
33094;SDS011;19459;53.044;8.910;2023-08-24T10:44:45;7.75;;;2.92;;
33094;SDS011;19459;53.044;8.910;2023-08-24T10:52:20;5.72;;;2.45;;
33094;SDS011;19459;53.044;8.910;2023-08-24T10:54:50;8.20;;;2.63;;
33094;SDS011;19459;53.044;8.910;2023-08-24T10:57:18;5.75;;;3.25;;
33094;SDS011;19459;53.044;8.910;2023-08-24T10:59:59;4.32;;;3.05;;
33094;SDS011;19459;53.044;8.910;2023-08-24T11:02:25;8.77;;;3.25;;
33094;SDS011;19459;53.044;8.910;2023-08-24T11:05:10;6.90;;;2.60;;
33094;SDS011;19459;53.044;8.910;2023-08-24T11:07:57;4.18;;;2.80;;
33094;SDS011;19459;53.044;8.910;2023-08-24T11:10:31;5.05;;;2.38;;
33094;SDS011;19459;53.044;8.910;2023-08-24T11:13:07;6.65;;;3.10;;
33094;SDS011;19459;53.044;8.910;2023-08-24T11:15:45;10.52;;;2.33;;
33094;SDS011;19459;53.044;8.910;2023-08-24T11:20:44;7.75;;;3.58;;
33094;SDS011;19459;53.044;8.910;2023-08-24T11:23:20;8.20;;;2.53;;
33094;SDS011;19459;53.044;8.910;2023-08-24T11:25:49;10.55;;;3.15;;
33094;SDS011;19459;53.044;8.910;2023-08-24T11:28:20;8.52;;;3.15;;
33094;SDS011;19459;53.044;8.910;2023-08-24T11:30:46;7.82;;;2.78;;
33094;SDS011;19459;53.044;8.910;2023-08-24T11:33:12;5.38;;;2.53;;
33094;SDS011;19459;53.044;8.910;2023-08-24T11:35:43;6.90;;;2.95;;
33094;SDS011;19459;53.044;8.910;2023-08-24T11:38:10;10.82;;;3.42;;
33094;SDS011;19459;53.044;8.910;2023-08-24T11:40:36;5.45;;;2.90;;
33094;SDS011;19459;53.044;8.910;2023-08-24T11:43:02;6.45;;;3.50;;
33094;SDS011;19459;53.044;8.910;2023-08-24T11:45:30;6.57;;;3.35;;
33094;SDS011;19459;53.044;8.910;2023-08-24T11:47:59;6.45;;;3.35;;
33094;SDS011;19459;53.044;8.910;2023-08-24T11:50:29;5.47;;;2.47;;
33094;SDS011;19459;53.044;8.910;2023-08-24T11:52:56;5.93;;;3.00;;
33094;SDS011;19459;53.044;8.910;2023-08-24T11:55:22;9.35;;;3.58;;
33094;SDS011;19459;53.044;8.910;2023-08-24T11:57:49;6.03;;;2.83;;
33094;SDS011;19459;53.044;8.910;2023-08-24T12:00:17;8.02;;;3.60;;
33094;SDS011;19459;53.044;8.910;2023-08-24T12:02:46;6.00;;;2.83;;
33094;SDS011;19459;53.044;8.910;2023-08-24T12:05:22;4.18;;;2.22;;
33094;SDS011;19459;53.044;8.910;2023-08-24T12:07:53;4.00;;;2.60;;
33094;SDS011;19459;53.044;8.910;2023-08-24T12:10:20;5.55;;;2.40;;
33094;SDS011;19459;53.044;8.910;2023-08-24T12:12:47;6.13;;;3.00;;
33094;SDS011;19459;53.044;8.910;2023-08-24T12:15:20;10.10;;;3.08;;
33094;SDS011;19459;53.044;8.910;2023-08-24T12:17:47;4.13;;;2.33;;
33094;SDS011;19459;53.044;8.910;2023-08-24T12:20:20;4.72;;;2.60;;
33094;SDS011;19459;53.044;8.910;2023-08-24T12:22:54;5.53;;;2.25;;
33094;SDS011;19459;53.044;8.910;2023-08-24T12:25:24;5.18;;;2.55;;
33094;SDS011;19459;53.044;8.910;2023-08-24T12:27:50;8.40;;;3.10;;
33094;SDS011;19459;53.044;8.910;2023-08-24T12:30:18;7.40;;;2.30;;
33094;SDS011;19459;53.044;8.910;2023-08-24T12:32:48;4.40;;;2.00;;
33094;SDS011;19459;53.044;8.910;2023-08-24T12:35:15;4.95;;;2.15;;
33094;SDS011;19459;53.044;8.910;2023-08-24T12:37:41;5.10;;;2.40;;
33094;SDS011;19459;53.044;8.910;2023-08-24T12:40:07;5.28;;;2.40;;
33094;SDS011;19459;53.044;8.910;2023-08-24T12:42:33;8.93;;;2.55;;
33094;SDS011;19459;53.044;8.910;2023-08-24T12:45:00;5.55;;;2.08;;
33094;SDS011;19459;53.044;8.910;2023-08-24T12:47:26;4.65;;;2.08;;
33094;SDS011;19459;53.044;8.910;2023-08-24T12:49:52;4.90;;;2.13;;
33094;SDS011;19459;53.044;8.910;2023-08-24T12:52:22;8.63;;;2.28;;
33094;SDS011;19459;53.044;8.910;2023-08-24T12:54:49;5.07;;;2.70;;
33094;SDS011;19459;53.044;8.910;2023-08-24T12:57:15;11.25;;;2.40;;
33094;SDS011;19459;53.044;8.910;2023-08-24T12:59:41;6.00;;;2.20;;
33094;SDS011;19459;53.044;8.910;2023-08-24T13:02:07;5.65;;;2.17;;
33094;SDS011;19459;53.044;8.910;2023-08-24T13:04:32;5.70;;;2.50;;
33094;SDS011;19459;53.044;8.910;2023-08-24T13:06:58;6.63;;;2.95;;
33094;SDS011;19459;53.044;8.910;2023-08-24T13:09:24;5.95;;;2.40;;
33094;SDS011;19459;53.044;8.910;2023-08-24T13:11:51;4.70;;;2.70;;
33094;SDS011;19459;53.044;8.910;2023-08-24T13:14:17;4.88;;;2.28;;
33094;SDS011;19459;53.044;8.910;2023-08-24T13:16:42;5.07;;;2.20;;
33094;SDS011;19459;53.044;8.910;2023-08-24T13:19:08;4.07;;;2.33;;
33094;SDS011;19459;53.044;8.910;2023-08-24T13:21:34;3.90;;;2.40;;
33094;SDS011;19459;53.044;8.910;2023-08-24T13:24:00;6.82;;;2.22;;
33094;SDS011;19459;53.044;8.910;2023-08-24T13:26:28;4.45;;;2.75;;
33094;SDS011;19459;53.044;8.910;2023-08-24T13:28:57;5.35;;;2.20;;
33094;SDS011;19459;53.044;8.910;2023-08-24T13:31:23;4.43;;;2.30;;
33094;SDS011;19459;53.044;8.910;2023-08-24T13:33:48;3.65;;;2.33;;
33094;SDS011;19459;53.044;8.910;2023-08-24T13:36:15;11.15;;;3.90;;
33094;SDS011;19459;53.044;8.910;2023-08-24T13:38:40;13.73;;;4.63;;
33094;SDS011;19459;53.044;8.910;2023-08-24T13:41:06;3.53;;;2.47;;
33094;SDS011;19459;53.044;8.910;2023-08-24T13:43:32;7.82;;;2.70;;
33094;SDS011;19459;53.044;8.910;2023-08-24T13:45:58;4.32;;;1.98;;
33094;SDS011;19459;53.044;8.910;2023-08-24T13:48:23;4.90;;;1.83;;
33094;SDS011;19459;53.044;8.910;2023-08-24T13:50:52;3.22;;;2.22;;
33094;SDS011;19459;53.044;8.910;2023-08-24T13:53:18;5.10;;;2.30;;
33094;SDS011;19459;53.044;8.910;2023-08-24T13:55:44;3.70;;;1.90;;
33094;SDS011;19459;53.044;8.910;2023-08-24T13:58:10;5.68;;;2.05;;
33094;SDS011;19459;53.044;8.910;2023-08-24T14:00:36;7.53;;;1.73;;
33094;SDS011;19459;53.044;8.910;2023-08-24T14:03:02;4.90;;;2.05;;
33094;SDS011;19459;53.044;8.910;2023-08-24T14:05:29;2.63;;;1.90;;
33094;SDS011;19459;53.044;8.910;2023-08-24T14:07:55;5.60;;;2.15;;
33094;SDS011;19459;53.044;8.910;2023-08-24T14:10:23;7.95;;;2.40;;
33094;SDS011;19459;53.044;8.910;2023-08-24T14:12:49;10.95;;;2.83;;
33094;SDS011;19459;53.044;8.910;2023-08-24T14:15:15;8.98;;;1.80;;
33094;SDS011;19459;53.044;8.910;2023-08-24T14:17:41;5.20;;;2.03;;
33094;SDS011;19459;53.044;8.910;2023-08-24T14:20:07;5.82;;;2.50;;
33094;SDS011;19459;53.044;8.910;2023-08-24T14:22:34;8.15;;;2.53;;
33094;SDS011;19459;53.044;8.910;2023-08-24T14:24:59;6.07;;;1.90;;
33094;SDS011;19459;53.044;8.910;2023-08-24T14:27:25;3.25;;;1.92;;
33094;SDS011;19459;53.044;8.910;2023-08-24T14:29:51;3.00;;;2.20;;
33094;SDS011;19459;53.044;8.910;2023-08-24T14:32:17;5.30;;;2.15;;
33094;SDS011;19459;53.044;8.910;2023-08-24T14:34:43;5.47;;;2.08;;
33094;SDS011;19459;53.044;8.910;2023-08-24T14:37:09;6.55;;;2.20;;
33094;SDS011;19459;53.044;8.910;2023-08-24T14:39:34;5.05;;;2.17;;
33094;SDS011;19459;53.044;8.910;2023-08-24T14:42:00;4.55;;;1.75;;
33094;SDS011;19459;53.044;8.910;2023-08-24T14:44:28;4.60;;;1.85;;
33094;SDS011;19459;53.044;8.910;2023-08-24T14:46:53;3.97;;;2.15;;
33094;SDS011;19459;53.044;8.910;2023-08-24T14:49:19;5.97;;;2.13;;
33094;SDS011;19459;53.044;8.910;2023-08-24T14:51:45;5.80;;;2.45;;
33094;SDS011;19459;53.044;8.910;2023-08-24T14:54:11;6.28;;;2.65;;
33094;SDS011;19459;53.044;8.910;2023-08-24T14:56:41;9.70;;;2.42;;
33094;SDS011;19459;53.044;8.910;2023-08-24T14:59:07;7.10;;;2.75;;
33094;SDS011;19459;53.044;8.910;2023-08-24T15:01:32;6.68;;;2.30;;
33094;SDS011;19459;53.044;8.910;2023-08-24T15:03:58;5.50;;;2.60;;
33094;SDS011;19459;53.044;8.910;2023-08-24T15:06:24;2.53;;;2.03;;